Time;durP1;ratioP1;P1;durP2;ratioP2;P2;SDS_P1;SDS_P2;PMS_P1;PMS_P2;Temp;Humidity;BMP_temperature;BMP_pressure;BME280_temperature;BME280_humidity;BME280_pressure;Samples;Min_cycle;Max_cycle;Signal;HPM_P1;HPM_P2
2021/10/18 00:02:23;;;;;;;16.23;7.57;;;12.50;99.90;;;;;;5053338;28;20029;-77
2021/10/18 00:04:49;;;;;;;11.55;7.63;;;12.50;99.90;;;;;;5052063;28;20029;-77
2021/10/18 00:07:15;;;;;;;14.52;7.78;;;12.40;99.90;;;;;;5051977;28;20025;-76
2021/10/18 00:09:41;;;;;;;;;;;12.30;99.90;;;;;;5052376;28;20029;-76
2021/10/18 00:12:07;;;;;;;13.43;7.35;;;12.00;99.90;;;;;;5053528;28;19905;-76
2021/10/18 00:14:33;;;;;;;12.00;6.53;;;12.00;99.90;;;;;;5053182;28;20021;-76
2021/10/18 00:16:59;;;;;;;10.60;6.82;;;11.90;99.90;;;;;;5053207;28;20048;-77
2021/10/18 00:19:25;;;;;;;13.27;7.65;;;11.70;99.90;;;;;;5051837;28;20067;-77
2021/10/18 00:21:51;;;;;;;12.48;7.53;;;12.00;99.90;;;;;;5053154;28;20032;-77
2021/10/18 00:24:17;;;;;;;13.38;6.95;;;12.30;99.90;;;;;;5053531;28;20051;-77
2021/10/18 00:26:42;;;;;;;15.70;8.77;;;12.30;99.90;;;;;;5053394;28;20087;-77
2021/10/18 00:29:08;;;;;;;12.07;8.18;;;11.80;99.90;;;;;;5053073;28;20074;-77
2021/10/18 00:31:34;;;;;;;12.45;7.50;;;11.40;99.90;;;;;;5052865;28;20093;-77
2021/10/18 00:34:00;;;;;;;12.55;8.05;;;11.60;99.90;;;;;;5055781;28;20111;-77
2021/10/18 00:36:25;;;;;;;13.40;8.80;;;11.70;99.90;;;;;;5057089;28;20025;-77
2021/10/18 00:38:51;;;;;;;15.68;8.27;;;11.50;99.90;;;;;;5055630;28;20025;-76
2021/10/18 00:41:17;;;;;;;12.65;8.77;;;11.40;99.90;;;;;;5056925;28;20052;-76
2021/10/18 00:43:46;;;;;;;;;;;11.30;99.90;;;;;;5057459;28;20400;-77
2021/10/18 00:46:20;;;;;;;13.98;8.07;;;11.30;99.90;;;;;;5057353;28;19909;-76
2021/10/18 00:48:47;;;;;;;13.57;8.75;;;11.40;99.90;;;;;;5057090;28;20086;-77
2021/10/18 00:51:13;;;;;;;12.80;7.97;;;11.50;99.90;;;;;;5056867;28;20016;-77
2021/10/18 00:53:39;;;;;;;13.45;9.23;;;11.50;99.90;;;;;;5056845;28;20104;-77
2021/10/18 00:56:05;;;;;;;12.15;7.90;;;11.10;99.90;;;;;;5056860;28;20033;-77
2021/10/18 00:58:31;;;;;;;15.70;9.15;;;10.80;99.90;;;;;;5055393;28;20083;-77
2021/10/18 01:00:57;;;;;;;13.25;8.80;;;10.70;99.90;;;;;;5055310;28;20037;-77
2021/10/18 01:03:25;;;;;;;12.75;7.47;;;10.60;99.90;;;;;;5056681;28;20070;-76
2021/10/18 01:05:51;;;;;;;13.35;7.90;;;11.10;99.90;;;;;;5056523;28;20054;-77
2021/10/18 01:08:17;;;;;;;14.13;7.63;;;11.40;99.90;;;;;;5056446;28;20017;-77
2021/10/18 01:10:43;;;;;;;11.13;6.95;;;11.60;99.90;;;;;;5056426;28;20078;-77
2021/10/18 01:13:09;;;;;;;11.75;7.55;;;11.70;99.90;;;;;;5056397;28;20025;-76
2021/10/18 01:15:35;;;;;;;13.68;7.18;;;11.80;99.90;;;;;;5056249;28;20032;-77
2021/10/18 01:18:00;;;;;;;14.02;8.20;;;11.80;99.90;;;;;;5056382;28;20044;-77
2021/10/18 01:20:31;;;;;;;14.88;8.23;;;11.60;99.90;;;;;;5056236;28;20025;-77
2021/10/18 01:22:57;;;;;;;14.02;7.60;;;11.30;99.90;;;;;;5054654;28;20036;-76
2021/10/18 01:25:23;;;;;;;12.20;7.82;;;11.50;99.90;;;;;;5056399;28;20082;-77
2021/10/18 01:27:49;;;;;;;16.20;10.10;;;11.50;99.90;;;;;;5054885;28;20024;-77
2021/10/18 01:30:15;;;;;;;16.42;10.32;;;11.20;99.90;;;;;;5055923;28;20040;-77
2021/10/18 01:32:42;;;;;;;15.35;9.73;;;11.10;99.90;;;;;;5055823;28;20456;-77
2021/10/18 01:35:09;;;;;;;15.07;9.38;;;11.20;99.90;;;;;;5056156;28;20037;-77
2021/10/18 01:37:36;;;;;;;12.65;8.43;;;11.60;99.90;;;;;;5055992;28;20085;-77
2021/10/18 01:40:05;;;;;;;15.13;8.40;;;11.80;99.90;;;;;;5055796;28;20029;-77
2021/10/18 01:42:31;;;;;;;16.95;12.20;;;11.50;99.90;;;;;;5054515;28;20120;-77
2021/10/18 01:44:57;;;;;;;18.42;13.60;;;11.40;99.90;;;;;;5054267;28;20163;-76
2021/10/18 01:47:26;;;;;;;17.60;11.40;;;11.20;99.90;;;;;;5054499;28;20059;-77
2021/10/18 01:49:52;;;;;;;16.08;9.82;;;11.10;99.90;;;;;;5054391;28;20025;-77
2021/10/18 01:52:18;;;;;;;13.13;8.68;;;11.50;99.90;;;;;;5055678;28;20028;-76
2021/10/18 01:54:43;;;;;;;17.63;8.25;;;11.80;99.90;;;;;;5055221;28;20041;-77
2021/10/18 01:57:09;;;;;;;12.07;7.68;;;11.90;99.90;;;;;;5055589;28;20017;-77
2021/10/18 01:59:35;;;;;;;12.88;8.18;;;11.80;99.90;;;;;;5055601;28;20477;-76
2021/10/18 02:02:01;;;;;;;16.70;8.38;;;11.60;99.90;;;;;;5055504;28;20384;-77
2021/10/18 02:04:26;;;;;;;11.30;7.40;;;11.50;99.90;;;;;;5055814;28;20025;-77
2021/10/18 02:06:52;;;;;;;12.95;7.00;;;11.60;99.90;;;;;;5054110;28;20029;-77
2021/10/18 02:09:18;;;;;;;12.65;6.85;;;11.70;99.90;;;;;;5055349;28;20083;-77
2021/10/18 02:11:43;;;;;;;12.10;6.90;;;11.70;99.90;;;;;;5055348;28;20075;-77
2021/10/18 02:14:09;;;;;;;11.40;7.15;;;11.60;99.90;;;;;;5055199;28;20059;-77
2021/10/18 02:16:35;;;;;;;12.80;7.15;;;11.20;99.90;;;;;;5053976;28;20025;-77
2021/10/18 02:19:01;;;;;;;14.73;9.68;;;11.20;99.90;;;;;;5055115;28;20056;-77
2021/10/18 02:21:27;;;;;;;19.00;13.27;;;11.10;99.90;;;;;;5055170;28;20025;-77
2021/10/18 02:23:52;;;;;;;16.73;12.23;;;10.90;99.90;;;;;;5055134;28;20052;-77
2021/10/18 02:26:18;;;;;;;15.45;10.52;;;10.80;99.90;;;;;;5055029;28;20059;-77
2021/10/18 02:28:44;;;;;;;19.55;13.00;;;11.00;99.90;;;;;;5055016;28;20021;-77
2021/10/18 02:31:10;;;;;;;16.80;12.35;;;11.10;99.90;;;;;;5054711;28;20135;-77
2021/10/18 02:33:36;;;;;;;16.08;11.45;;;11.00;99.90;;;;;;5055020;28;20068;-76
2021/10/18 02:36:02;;;;;;;18.02;13.63;;;11.20;99.90;;;;;;5053478;28;20079;-77
2021/10/18 02:38:28;;;;;;;;;;;11.30;99.90;;;;;;5055167;28;20033;-77
2021/10/18 02:40:54;;;;;;;19.58;15.20;;;11.40;99.90;;;;;;5054754;28;20286;-77
2021/10/18 02:43:20;;;;;;;21.23;14.23;;;11.30;99.90;;;;;;5054975;28;20074;-77
2021/10/18 02:45:48;;;;;;;24.40;16.48;;;11.30;99.90;;;;;;5054850;28;20029;-77
2021/10/18 02:48:15;;;;;;;24.98;15.98;;;11.40;99.90;;;;;;5054697;28;20040;-77
2021/10/18 02:50:40;;;;;;;21.80;15.32;;;11.40;99.90;;;;;;5054562;28;20025;-77
2021/10/18 02:53:06;;;;;;;22.48;16.52;;;11.40;99.90;;;;;;5054504;28;20401;-77
2021/10/18 02:55:33;;;;;;;21.45;15.63;;;11.40;99.90;;;;;;5053909;28;20104;-77
2021/10/18 02:57:59;;;;;;;19.70;14.98;;;11.30;99.90;;;;;;5054447;28;20025;-76
2021/10/18 03:00:24;;;;;;;19.38;14.25;;;11.40;99.90;;;;;;5054341;28;20443;-77
2021/10/18 03:02:50;;;;;;;24.50;10.43;;;11.40;99.90;;;;;;5054345;28;20432;-76
2021/10/18 03:05:16;;;;;;;15.40;10.18;;;11.30;99.90;;;;;;5052983;28;20497;-76
2021/10/18 03:07:42;;;;;;;17.60;13.82;;;11.40;99.90;;;;;;5054227;28;20503;-77
2021/10/18 03:10:08;;;;;;;20.92;14.73;;;11.30;99.90;;;;;;5054210;28;20108;-77
2021/10/18 03:12:34;;;;;;;;;;;11.50;99.90;;;;;;5054508;28;20031;-77
2021/10/18 03:15:00;;;;;;;16.33;10.20;;;11.30;99.90;;;;;;5054011;28;19908;-77
2021/10/18 03:17:27;;;;;;;12.98;8.07;;;11.50;99.90;;;;;;5054213;28;20064;-77
2021/10/18 03:19:53;;;;;;;12.85;8.23;;;11.60;99.90;;;;;;5053989;28;20033;-76
2021/10/18 03:22:18;;;;;;;12.82;7.80;;;11.60;99.90;;;;;;5053948;28;20028;-77
2021/10/18 03:24:44;;;;;;;16.65;9.07;;;11.70;99.90;;;;;;5054020;28;20430;-76
2021/10/18 03:27:10;;;;;;;15.68;9.80;;;11.70;99.90;;;;;;5053870;28;20033;-77
2021/10/18 03:29:36;;;;;;;15.95;11.07;;;11.50;99.90;;;;;;5053795;28;20478;-77
2021/10/18 03:32:02;;;;;;;18.25;14.52;;;11.10;99.90;;;;;;5053710;28;20409;-77
2021/10/18 03:34:28;;;;;;;24.80;14.80;;;10.80;99.90;;;;;;5053633;28;20037;-77
2021/10/18 03:36:53;;;;;;;25.85;12.40;;;10.80;99.90;;;;;;5053678;28;20027;-76
2021/10/18 03:39:19;;;;;;;20.27;15.18;;;10.90;99.90;;;;;;5053523;28;20037;-78
2021/10/18 03:41:45;;;;;;;23.30;16.17;;;11.10;99.90;;;;;;5053577;28;20025;-76
2021/10/18 03:44:11;;;;;;;20.20;14.48;;;11.10;99.90;;;;;;5053750;28;20035;-77
2021/10/18 03:46:37;;;;;;;19.52;15.43;;;11.20;99.90;;;;;;5053636;28;20017;-77
2021/10/18 03:49:03;;;;;;;22.88;15.88;;;11.30;99.90;;;;;;5052299;28;20021;-77
2021/10/18 03:51:29;;;;;;;23.40;15.85;;;11.50;99.90;;;;;;5053586;28;20100;-77
2021/10/18 03:53:54;;;;;;;20.20;16.55;;;11.60;99.90;;;;;;5053516;28;20029;-77
2021/10/18 03:56:20;;;;;;;24.80;18.88;;;11.50;99.90;;;;;;5053343;28;20501;-76
2021/10/18 03:58:46;;;;;;;21.35;17.27;;;11.50;99.90;;;;;;5053360;28;20040;-77
2021/10/18 04:01:12;;;;;;;19.92;16.05;;;11.20;99.90;;;;;;5053423;28;20430;-77
2021/10/18 04:03:38;;;;;;;25.25;18.75;;;11.20;99.90;;;;;;5053331;28;20033;-76
2021/10/18 04:06:04;;;;;;;22.33;17.13;;;11.10;99.90;;;;;;5053457;28;20025;-77
2021/10/18 04:08:36;;;;;;;23.17;17.30;;;11.10;99.90;;;;;;5053357;28;20029;-77
2021/10/18 04:11:02;;;;;;;25.77;17.58;;;11.10;99.90;;;;;;5051680;28;20111;-77
2021/10/18 04:13:28;;;;;;;24.35;18.13;;;11.10;99.90;;;;;;5053238;28;20152;-77
2021/10/18 04:15:53;;;;;;;;;;;11.10;99.90;;;;;;5053563;28;20496;-77
2021/10/18 04:18:19;;;;;;;25.90;18.27;;;10.90;99.90;;;;;;5053723;28;19905;-77
2021/10/18 04:20:45;;;;;;;24.40;18.77;;;10.90;99.90;;;;;;5053401;28;20021;-76
2021/10/18 04:23:11;;;;;;;;;;;10.90;99.90;;;;;;5053508;28;20039;-76
2021/10/18 04:25:36;;;;;;;24.80;18.27;;;10.80;99.90;;;;;;5053059;28;19995;-76
2021/10/18 04:28:02;;;;;;;22.30;18.73;;;11.00;99.90;;;;;;5053039;28;20060;-77
2021/10/18 04:30:28;;;;;;;24.95;18.95;;;11.00;99.90;;;;;;5051751;28;20079;-77
2021/10/18 04:32:55;;;;;;;26.17;18.60;;;10.90;99.90;;;;;;5052669;28;20110;-76
2021/10/18 04:35:21;;;;;;;23.25;18.20;;;11.00;99.90;;;;;;5052936;28;20048;-77
2021/10/18 04:37:48;;;;;;;26.17;18.98;;;11.10;99.90;;;;;;5052915;28;20025;-78
2021/10/18 04:40:14;;;;;;;23.45;18.95;;;11.20;99.90;;;;;;5053271;28;20070;-77
2021/10/18 04:42:40;;;;;;;25.17;17.42;;;11.20;99.90;;;;;;5051611;28;20021;-77
2021/10/18 04:45:07;;;;;;;25.80;19.63;;;11.20;99.90;;;;;;5052932;28;20032;-77
2021/10/18 04:47:32;;;;;;;24.05;17.55;;;11.20;99.90;;;;;;5052781;28;20032;-76
2021/10/18 04:49:58;;;;;;;25.17;17.92;;;11.20;99.90;;;;;;5052895;28;20440;-77
2021/10/18 04:52:24;;;;;;;24.17;17.38;;;11.30;99.90;;;;;;5052819;28;20112;-77
2021/10/18 04:54:50;;;;;;;22.00;16.70;;;11.40;99.90;;;;;;5052760;28;20398;-77
2021/10/18 04:57:15;;;;;;;24.67;16.58;;;11.50;99.90;;;;;;5052818;28;20017;-76
2021/10/18 04:59:41;;;;;;;23.02;16.92;;;11.60;99.90;;;;;;5051459;28;20056;-77
2021/10/18 05:02:07;;;;;;;22.92;14.75;;;11.60;99.90;;;;;;5052713;28;20029;-77
2021/10/18 05:04:33;;;;;;;19.75;15.48;;;11.70;99.90;;;;;;5052902;28;20546;-77
2021/10/18 05:06:59;;;;;;;22.60;16.35;;;11.80;99.90;;;;;;5052703;28;20624;-77
2021/10/18 05:09:24;;;;;;;20.63;15.95;;;11.80;99.90;;;;;;5052928;28;20035;-77
2021/10/18 05:11:50;;;;;;;21.25;15.98;;;11.90;99.90;;;;;;5052648;28;20029;-77
2021/10/18 05:14:16;;;;;;;27.20;16.10;;;11.90;99.90;;;;;;5052484;28;20036;-76
2021/10/18 05:16:41;;;;;;;24.45;17.15;;;11.90;99.90;;;;;;5052611;28;20029;-76
2021/10/18 05:19:07;;;;;;;20.55;16.27;;;11.70;99.90;;;;;;5052506;28;20032;-77
2021/10/18 05:21:33;;;;;;;25.73;15.55;;;11.80;99.90;;;;;;5056219;28;20021;-77
2021/10/18 05:23:59;;;;;;;21.02;15.77;;;11.80;99.90;;;;;;5055168;28;20017;-76
2021/10/18 05:26:25;;;;;;;23.38;16.83;;;12.00;99.90;;;;;;5056206;28;20029;-77
2021/10/18 05:28:51;;;;;;;23.25;15.55;;;12.00;99.90;;;;;;5056134;28;20060;-76
2021/10/18 05:31:17;;;;;;;23.70;16.00;;;12.10;99.90;;;;;;5054621;28;20067;-77
2021/10/18 05:33:42;;;;;;;24.70;16.55;;;12.10;99.90;;;;;;5056285;28;20021;-77
2021/10/18 05:36:09;;;;;;;26.10;17.50;;;12.00;99.90;;;;;;5055777;28;20055;-77
2021/10/18 05:38:35;;;;;;;26.73;18.30;;;12.10;99.90;;;;;;5055867;28;20021;-76
2021/10/18 05:41:01;;;;;;;26.08;16.63;;;12.10;99.90;;;;;;5055951;28;20028;-76
2021/10/18 05:43:27;;;;;;;22.63;17.08;;;12.10;99.90;;;;;;5056365;28;20025;-76
2021/10/18 05:45:52;;;;;;;23.20;17.60;;;12.10;99.90;;;;;;5055768;28;20115;-77
2021/10/18 05:48:18;;;;;;;24.85;18.45;;;11.90;99.90;;;;;;5055792;28;20048;-76
2021/10/18 05:50:45;;;;;;;24.02;17.35;;;11.80;99.90;;;;;;5055893;28;20033;-77
2021/10/18 05:53:12;;;;;;;23.85;17.17;;;11.80;99.90;;;;;;5055710;28;20075;-77
2021/10/18 05:55:38;;;;;;;26.38;17.85;;;11.70;99.90;;;;;;5054319;28;20124;-77
2021/10/18 05:58:07;;;;;;;35.90;19.90;;;11.90;99.90;;;;;;5055533;28;20009;-77
2021/10/18 06:00:35;;;;;;;25.73;19.35;;;11.90;99.90;;;;;;5055624;28;20028;-77
2021/10/18 06:03:01;;;;;;;30.20;18.65;;;11.90;99.90;;;;;;5055633;28;20063;-77
2021/10/18 06:05:27;;;;;;;32.95;20.58;;;11.80;99.90;;;;;;5055491;28;20103;-76
2021/10/18 06:08:02;;;;;;;30.73;20.13;;;11.80;99.90;;;;;;5055674;28;20047;-77
2021/10/18 06:10:27;;;;;;;29.08;19.75;;;11.80;99.90;;;;;;5055554;28;20114;-77
2021/10/18 06:12:53;;;;;;;34.17;20.75;;;11.90;99.90;;;;;;5054004;28;20029;-76
2021/10/18 06:15:20;;;;;;;31.85;19.60;;;11.90;99.90;;;;;;5055199;28;20065;-77
2021/10/18 06:17:46;;;;;;;31.65;21.83;;;11.90;99.90;;;;;;5055191;28;20027;-76
2021/10/18 06:20:13;;;;;;;28.50;20.38;;;11.80;99.90;;;;;;5055488;28;20025;-76
2021/10/18 06:22:39;;;;;;;31.92;21.58;;;11.80;99.90;;;;;;5055207;28;20028;-76
2021/10/18 06:25:05;;;;;;;;;;;11.90;99.90;;;;;;5055803;28;20021;-77
2021/10/18 06:27:31;;;;;;;31.45;20.45;;;11.90;99.90;;;;;;5054973;28;19931;-77
2021/10/18 06:29:57;;;;;;;28.27;20.23;;;11.90;99.90;;;;;;5053132;28;20083;-76
2021/10/18 06:32:22;;;;;;;37.25;22.58;;;12.10;99.90;;;;;;5052974;28;20053;-78
2021/10/18 06:34:48;;;;;;;32.78;22.90;;;12.10;99.90;;;;;;5054787;28;20123;-77
2021/10/18 06:37:14;;;;;;;30.40;21.92;;;12.10;99.90;;;;;;5054810;28;20025;-77
2021/10/18 06:39:40;;;;;;;32.38;22.00;;;12.20;99.90;;;;;;5053449;28;20025;-77
2021/10/18 06:42:06;;;;;;;33.40;21.17;;;12.20;99.90;;;;;;5054744;28;20100;-77
2021/10/18 06:44:31;;;;;;;35.28;22.42;;;12.40;99.90;;;;;;5053392;28;20029;-77
2021/10/18 06:46:57;;;;;;;47.13;27.00;;;12.30;99.90;;;;;;5053305;28;20040;-77
2021/10/18 06:49:24;;;;;;;38.60;23.05;;;12.40;99.90;;;;;;5053237;28;20120;-77
2021/10/18 06:51:54;;;;;;;34.53;20.48;;;12.40;99.90;;;;;;5054569;28;20060;-77
2021/10/18 06:54:21;;;;;;;43.55;25.20;;;12.50;99.90;;;;;;5054295;28;20103;-76
2021/10/18 06:56:47;;;;;;;48.42;25.33;;;12.50;99.90;;;;;;5054369;28;20096;-77
2021/10/18 06:59:15;;;;;;;58.35;28.05;;;12.50;99.90;;;;;;5054334;28;20025;-76
2021/10/18 07:01:41;;;;;;;38.97;24.00;;;12.30;99.90;;;;;;5054449;28;20493;-77
2021/10/18 07:04:07;;;;;;;;;;;12.40;99.90;;;;;;5054713;28;20099;-77
2021/10/18 07:06:34;;;;;;;51.22;25.15;;;12.40;99.90;;;;;;5054287;28;19991;-77
2021/10/18 07:09:00;;;;;;;63.25;28.60;;;12.40;99.90;;;;;;5052931;28;20056;-77
2021/10/18 07:11:26;;;;;;;64.57;28.92;;;12.20;99.90;;;;;;5054713;28;20375;-77
2021/10/18 07:13:53;;;;;;;57.67;27.80;;;12.20;99.90;;;;;;5054326;28;20563;-77
2021/10/18 07:16:19;;;;;;;58.50;26.63;;;12.30;99.90;;;;;;5054014;28;20025;-77
2021/10/18 07:18:45;;;;;;;52.45;26.95;;;12.30;99.90;;;;;;5054482;28;20025;-76
2021/10/18 07:21:11;;;;;;;51.05;28.10;;;12.40;99.90;;;;;;5054261;28;20401;-77
2021/10/18 07:23:36;;;;;;;;;;;12.30;99.90;;;;;;5054498;28;20100;-77
2021/10/18 07:26:04;;;;;;;67.30;27.70;;;12.50;99.90;;;;;;5054052;28;20352;-77
2021/10/18 07:28:30;;;;;;;73.78;28.77;;;12.40;99.90;;;;;;5052583;28;20075;-76
2021/10/18 07:30:58;;;;;;;46.40;29.45;;;12.60;99.90;;;;;;5054057;28;20051;-76
2021/10/18 07:33:25;;;;;;;61.05;26.92;;;12.60;99.90;;;;;;5053822;28;20040;-77
2021/10/18 07:35:51;;;;;;;51.42;27.85;;;12.80;99.90;;;;;;5053807;28;20036;-77
2021/10/18 07:38:19;;;;;;;49.63;25.52;;;12.90;99.90;;;;;;5053669;28;20070;-77
2021/10/18 07:40:45;;;;;;;63.67;26.10;;;13.00;99.90;;;;;;5052384;28;20025;-77
2021/10/18 07:43:10;;;;;;;58.05;28.63;;;13.20;99.90;;;;;;5053632;28;20040;-77
2021/10/18 07:45:37;;;;;;;73.82;25.75;;;13.10;99.90;;;;;;5053580;28;20029;-77
2021/10/18 07:48:03;;;;;;;63.67;27.63;;;13.10;99.90;;;;;;5053495;28;20078;-77
2021/10/18 07:50:29;;;;;;;54.90;26.42;;;13.10;99.90;;;;;;5052223;28;20029;-77
2021/10/18 07:52:55;;;;;;;60.00;26.83;;;13.20;99.90;;;;;;5053480;28;20409;-77
2021/10/18 07:55:21;;;;;;;66.18;28.33;;;13.10;99.90;;;;;;5053352;28;20087;-77
2021/10/18 07:57:50;;;;;;;52.50;27.38;;;13.20;99.90;;;;;;5052183;28;20029;-77
2021/10/18 08:00:17;;;;;;;39.92;24.25;;;13.20;99.90;;;;;;5053348;28;20029;-77
2021/10/18 08:02:44;;;;;;;55.05;27.58;;;13.30;99.90;;;;;;5053370;28;20021;-77
2021/10/18 08:05:15;;;;;;;50.25;25.88;;;13.40;99.90;;;;;;5053384;28;20082;-77
2021/10/18 08:07:43;;;;;;;37.58;24.35;;;13.40;99.90;;;;;;5053780;28;20032;-77
2021/10/18 08:10:09;;;;;;;49.67;26.23;;;13.60;99.90;;;;;;5053388;28;20052;-77
2021/10/18 08:12:36;;;;;;;41.50;25.50;;;13.60;99.90;;;;;;5053209;28;20043;-78
2021/10/18 08:15:03;;;;;;;42.15;23.90;;;13.70;99.90;;;;;;5051737;28;20397;-77
2021/10/18 08:17:29;;;;;;;35.78;23.75;;;13.80;99.90;;;;;;5053164;28;20489;-77
2021/10/18 08:19:55;;;;;;;;;;;14.00;99.90;;;;;;5052252;28;20021;-77
2021/10/18 08:22:21;;;;;;;34.00;22.58;;;14.10;99.90;;;;;;5051788;28;19999;-77
2021/10/18 08:24:47;;;;;;;28.92;20.45;;;14.00;99.90;;;;;;5053211;28;20029;-77
2021/10/18 08:27:12;;;;;;;37.65;23.92;;;14.00;99.90;;;;;;5051800;28;20025;-77
2021/10/18 08:29:38;;;;;;;33.03;21.67;;;14.10;99.90;;;;;;5053217;28;20028;-77
2021/10/18 08:32:04;;;;;;;30.27;20.20;;;14.10;99.90;;;;;;5051529;28;20069;-77
2021/10/18 08:34:30;;;;;;;32.28;21.45;;;14.30;99.90;;;;;;5052948;28;20037;-77
2021/10/18 08:36:56;;;;;;;32.40;21.80;;;14.30;99.90;;;;;;5052968;28;20024;-78
2021/10/18 08:42:11;;;;;;;37.97;23.08;;;14.30;99.90;;;;;;5053075;28;20063;-77
2021/10/18 08:44:37;;;;;;;34.47;21.88;;;14.30;99.90;;;;;;5052948;28;20397;-77
2021/10/18 08:47:02;;;;;;;;;;;14.30;99.90;;;;;;5053224;28;20105;-77
2021/10/18 08:49:29;;;;;;;27.80;19.70;;;14.60;99.90;;;;;;5052853;28;19905;-78
2021/10/18 08:51:55;;;;;;;29.75;19.55;;;14.70;99.90;;;;;;5052948;28;20444;-77
2021/10/18 08:54:21;;;;;;;41.92;22.90;;;14.70;99.90;;;;;;5054608;28;20457;-77
2021/10/18 08:56:47;;;;;;;;;;;14.60;99.90;;;;;;5057140;28;20041;-77
2021/10/18 08:59:13;;;;;;;25.73;18.17;;;14.80;99.90;;;;;;5056715;28;19951;-77
2021/10/18 09:01:46;;;;;;;24.90;18.17;;;15.10;99.90;;;;;;5055316;28;20116;-77
2021/10/18 09:04:24;;;;;;;26.95;18.40;;;15.30;99.90;;;;;;5056879;28;20052;-77
2021/10/18 09:06:50;;;;;;;21.33;16.00;;;15.60;99.90;;;;;;5054987;28;20509;-77
2021/10/18 09:09:19;;;;;;;26.48;18.23;;;15.70;99.90;;;;;;5056455;28;20021;-77
2021/10/18 09:11:47;;;;;;;23.23;16.42;;;15.60;99.90;;;;;;5056454;28;20109;-78
2021/10/18 09:14:14;;;;;;;24.30;16.13;;;15.70;99.90;;;;;;5055118;28;20013;-77
2021/10/18 09:16:45;;;;;;;24.63;16.08;;;15.70;99.90;;;;;;5056250;28;20029;-77
2021/10/18 09:19:22;;;;;;;22.08;15.73;;;15.70;99.90;;;;;;5056418;28;20088;-77
2021/10/18 09:21:52;;;;;;;25.38;15.13;;;15.80;99.90;;;;;;5056321;28;20025;-77
2021/10/18 09:24:32;;;;;;;21.10;15.00;;;15.90;99.90;;;;;;5056465;28;20100;-77
2021/10/18 09:27:28;;;;;;;21.33;14.25;;;16.00;99.90;;;;;;5054814;28;20021;-77
2021/10/18 09:29:54;;;;;;;19.80;14.88;;;16.00;99.90;;;;;;5042330;28;20456;-77
2021/10/18 09:32:26;;;;;;;;;;;16.10;99.90;;;;;;5056271;28;20119;-78
2021/10/18 09:35:07;;;;;;;23.55;15.15;;;16.20;99.90;;;;;;5054678;28;20384;-78
2021/10/18 09:37:41;;;;;;;18.50;13.45;;;16.20;99.90;;;;;;5055864;28;20017;-77
2021/10/18 09:40:07;;;;;;;17.52;12.80;;;16.20;99.90;;;;;;5055831;28;20020;-77
2021/10/18 09:42:33;;;;;;;23.45;13.68;;;16.30;99.90;;;;;;5054779;28;20028;-77
2021/10/18 10:56:30;;;;;;;17.80;11.60;;;16.90;99.90;;;;;;5050866;28;20400;-78
2021/10/18 10:59:17;;;;;;;18.98;11.38;;;17.20;99.90;;;;;;5055775;28;20027;-78
2021/10/18 11:02:10;;;;;;;17.00;10.90;;;17.10;99.90;;;;;;5053496;28;20029;-79
2021/10/18 11:04:36;;;;;;;17.95;11.07;;;17.10;99.90;;;;;;5050831;28;20530;-79
2021/10/18 11:07:03;;;;;;;;;;;17.20;99.90;;;;;;5054765;28;20025;-79
2021/10/18 11:09:55;;;;;;;16.20;9.98;;;17.10;99.90;;;;;;5054598;28;19911;-79
2021/10/18 11:12:32;;;;;;;15.45;10.15;;;17.30;99.90;;;;;;5056217;28;20021;-80
2021/10/18 11:15:15;;;;;;;14.90;9.43;;;17.40;99.90;;;;;;5054375;28;20098;-80
2021/10/18 11:17:53;;;;;;;16.48;10.40;;;17.30;99.90;;;;;;5054908;28;20048;-80
2021/10/18 11:20:26;;;;;;;12.50;8.57;;;17.30;99.90;;;;;;5053440;28;20056;-79
2021/10/18 11:22:55;;;;;;;16.05;9.82;;;17.30;99.90;;;;;;5055539;28;20031;-79
2021/10/18 11:25:25;;;;;;;15.57;9.05;;;17.40;99.90;;;;;;5054668;28;20115;-79
2021/10/18 11:27:56;;;;;;;13.48;8.05;;;17.40;99.90;;;;;;5053206;28;20087;-80
2021/10/18 11:30:24;;;;;;;13.15;8.35;;;17.60;99.90;;;;;;5053132;28;20146;-79
2021/10/18 11:33:11;;;;;;;14.00;8.40;;;17.50;99.90;;;;;;5053643;28;20559;-80
2021/10/18 11:35:37;;;;;;;12.75;8.32;;;17.50;99.90;;;;;;5054039;28;20029;-80
2021/10/18 11:38:05;;;;;;;;;;;17.60;99.90;;;;;;5054178;28;20079;-80
2021/10/18 11:40:44;;;;;;;14.88;8.25;;;17.60;99.90;;;;;;5054282;28;19998;-80
2021/10/18 11:43:36;;;;;;;12.68;7.65;;;17.70;99.90;;;;;;5052346;28;20021;-79
2021/10/18 11:46:02;;;;;;;15.25;7.75;;;17.90;99.90;;;;;;5051014;28;20128;-82
2021/10/18 11:48:30;;;;;;;13.25;7.30;;;17.90;99.90;;;;;;5052233;28;20033;-81
2021/10/18 11:50:58;;;;;;;14.18;7.70;;;18.00;99.90;;;;;;5053695;28;20025;-80
2021/10/18 11:53:26;;;;;;;13.77;7.75;;;17.90;99.90;;;;;;5053584;28;20544;-81
2021/10/18 11:55:54;;;;;;;12.50;7.88;;;17.70;99.90;;;;;;5053201;28;20404;-80
2021/10/18 11:58:30;;;;;;;12.68;7.05;;;17.80;99.90;;;;;;5053382;28;20098;-81
2021/10/18 12:00:58;;;;;;;12.07;6.57;;;17.70;99.90;;;;;;5053379;28;20120;-82
2021/10/18 12:03:24;;;;;;;12.02;6.47;;;17.80;99.90;;;;;;5052025;28;20396;-80
2021/10/18 12:05:51;;;;;;;;;;;17.80;99.90;;;;;;5052396;28;20116;-81
2021/10/18 12:08:20;;;;;;;13.90;6.88;;;17.80;99.90;;;;;;5053512;28;19905;-81
2021/10/18 12:10:49;;;;;;;11.75;6.88;;;17.70;99.90;;;;;;5053116;28;20017;-81
2021/10/18 12:13:20;;;;;;;12.93;6.50;;;17.70;99.90;;;;;;5051896;28;20508;-81
2021/10/18 12:15:53;;;;;;;14.20;7.35;;;17.70;99.90;;;;;;5053117;28;20025;-81
2021/10/18 12:18:32;;;;;;;12.55;6.43;;;17.70;99.90;;;;;;5053637;28;20025;-80
2021/10/18 12:21:35;;;;;;;13.52;6.10;;;17.80;99.90;;;;;;5051555;28;20556;-81
2021/10/18 12:24:04;;;;;;;11.93;6.40;;;17.80;99.90;;;;;;5050510;28;20032;-80
2021/10/18 12:26:39;;;;;;;12.48;6.05;;;17.70;99.90;;;;;;5053247;28;20032;-80
2021/10/18 12:29:16;;;;;;;11.43;6.60;;;17.80;99.90;;;;;;5054489;28;20075;-80
2021/10/18 12:31:45;;;;;;;13.75;6.95;;;17.70;99.90;;;;;;5057023;28;20076;-80
2021/10/18 12:34:23;;;;;;;12.20;6.38;;;17.70;99.90;;;;;;5055819;28;20554;-82
2021/10/18 12:37:09;;;;;;;13.75;7.22;;;17.70;99.90;;;;;;5057171;28;20104;-82
2021/10/18 12:40:02;;;;;;;12.85;6.63;;;17.60;99.90;;;;;;5056959;28;20025;-82
2021/10/18 12:42:28;;;;;;;11.52;6.18;;;17.60;99.90;;;;;;5055571;28;20021;-81
2021/10/18 12:45:00;;;;;;;;;;;17.60;99.90;;;;;;5056144;28;20075;-82
2021/10/18 12:47:25;;;;;;;13.43;6.60;;;17.60;99.90;;;;;;5055680;28;19958;-81
2021/10/18 12:50:05;;;;;;;;;;;17.60;99.90;;;;;;5056081;28;20029;-80
2021/10/18 12:52:33;;;;;;;12.05;6.28;;;17.60;99.90;;;;;;5055387;28;19959;-80
2021/10/18 12:55:09;;;;;;;13.30;6.15;;;17.50;99.90;;;;;;5056835;28;20039;-81
2021/10/18 12:57:35;;;;;;;12.93;5.78;;;17.50;99.90;;;;;;5057527;28;20540;-82
2021/10/18 13:00:09;;;;;;;13.25;6.00;;;17.50;99.90;;;;;;5055673;28;20021;-81
2021/10/18 13:02:36;;;;;;;12.18;6.25;;;17.50;99.90;;;;;;5055664;28;20032;-81
2021/10/18 13:05:07;;;;;;;13.23;5.55;;;17.60;99.90;;;;;;5057200;28;20063;-82
2021/10/18 13:07:34;;;;;;;11.02;5.72;;;17.60;99.90;;;;;;5055940;28;20065;-80
2021/10/18 13:10:00;;;;;;;10.57;5.30;;;17.60;99.90;;;;;;5056199;28;20370;-80
2021/10/18 13:12:26;;;;;;;10.55;5.10;;;17.60;99.90;;;;;;5058690;28;20052;-80
2021/10/18 13:14:56;;;;;;;10.00;4.85;;;17.60;99.90;;;;;;5057320;28;20074;-82
2021/10/18 13:17:24;;;;;;;9.73;4.05;;;17.60;99.90;;;;;;5058069;28;20029;-83
2021/10/18 13:19:51;;;;;;;11.93;4.10;;;17.50;99.90;;;;;;5063557;28;20104;-81
2021/10/18 13:22:17;;;;;;;9.65;4.28;;;17.50;99.90;;;;;;5061825;28;20370;-81
2021/10/18 13:24:43;;;;;;;8.52;3.60;;;17.50;99.90;;;;;;5061879;28;20377;-82
2021/10/18 13:27:09;;;;;;;;;;;17.50;99.90;;;;;;5060094;28;20086;-83
2021/10/18 13:29:35;;;;;;;8.35;3.28;;;17.50;99.90;;;;;;5054808;28;19905;-81
2021/10/18 13:32:03;;;;;;;;;;;17.50;99.90;;;;;;5056462;28;20041;-81
2021/10/18 13:34:30;;;;;;;8.15;3.05;;;17.50;99.90;;;;;;5056225;28;20353;-80
2021/10/18 13:36:57;;;;;;;9.15;3.13;;;17.50;99.90;;;;;;5054573;28;20036;-81
2021/10/18 13:39:23;;;;;;;7.60;3.03;;;17.50;99.90;;;;;;5055340;28;20557;-80
2021/10/18 13:41:49;;;;;;;;;;;17.60;99.90;;;;;;5055027;28;20120;-80
2021/10/18 13:44:15;;;;;;;6.93;2.42;;;17.50;99.90;;;;;;5055971;28;20365;-80
2021/10/18 13:46:40;;;;;;;;;;;17.40;99.90;;;;;;5056298;28;20098;-79
2021/10/18 13:49:06;;;;;;;5.85;2.42;;;17.50;99.90;;;;;;5056298;28;20372;-81
2021/10/18 13:51:32;;;;;;;5.20;2.45;;;17.40;99.90;;;;;;5055910;28;20565;-85
2021/10/18 13:53:58;;;;;;;;;;;17.30;99.90;;;;;;5056216;28;20025;-83
2021/10/18 13:56:24;;;;;;;7.07;2.80;;;17.40;99.90;;;;;;5055580;28;19958;-83